Time,TemperatureF,DewpointF,PressureIn,WindDirection,WindDirectionDegrees,WindSpeedMPH,WindSpeedGustMPH,Humidity,HourlyPrecipIn,Conditions,Clouds,dailyrainin,SolarRadiationWatts/m^2,SoftwareType,DateUTC
2013-02-17 00:21:00,33.0,33.0,-100.00,NW,313,1.0,3.0,100,0.00,,,0.01,0.000000,,2013-02-17 09:21:00,
2013-02-17 00:31:00,33.0,33.0,-100.00,NW,313,1.0,3.0,100,0.00,,,0.01,0.000000,,2013-02-17 09:31:00,
2013-02-17 00:41:00,33.0,33.0,-100.00,NW,313,1.0,3.0,100,0.00,,,0.01,0.000000,,2013-02-17 09:41:00,
2013-02-17 00:51:00,33.0,33.0,-100.00,NW,313,1.0,3.0,100,0.00,,,0.01,0.000000,,2013-02-17 09:51:00,
2013-02-17 01:21:00,32.0,32.0,-100.00,East,80,0.0,2.0,100,0.00,,,0.01,0.000000,,2013-02-17 10:21:00,
2013-02-17 01:31:00,32.0,32.0,-100.00,East,80,0.0,2.0,100,0.00,,,0.01,0.000000,,2013-02-17 10:31:00,
2013-02-17 01:41:00,32.0,32.0,-100.00,East,80,0.0,2.0,100,0.00,,,0.01,0.000000,,2013-02-17 10:41:00,
2013-02-17 01:51:00,32.0,32.0,-100.00,East,80,0.0,2.0,100,0.00,,,0.01,0.000000,,2013-02-17 10:51:00,
2013-02-17 02:21:00,32.0,32.0,-100.00,NNE,29,1.0,4.0,100,0.00,,,-99.99,0.000000,,2013-02-17 11:21:00,
2013-02-17 02:32:00,32.0,32.0,-100.00,NNE,29,1.0,4.0,100,0.00,,,-99.99,0.000000,,2013-02-17 11:32:00,
2013-02-17 02:41:00,32.0,32.0,-100.00,NNE,29,1.0,4.0,100,0.00,,,-99.99,0.000000,,2013-02-17 11:41:00,
2013-02-17 02:52:00,32.0,32.0,-100.00,NNE,29,1.0,4.0,100,0.00,,,-99.99,0.000000,,2013-02-17 11:52:00,
2013-02-17 03:22:00,33.0,33.0,-100.00,North,350,4.0,6.0,100,0.00,,,0.01,0.000000,,2013-02-17 12:22:00,
2013-02-17 03:32:00,33.0,33.0,-100.00,North,350,4.0,6.0,100,0.00,,,0.01,0.000000,,2013-02-17 12:32:00,
2013-02-17 03:42:00,33.0,33.0,-100.00,North,350,4.0,6.0,100,0.00,,,0.01,0.000000,,2013-02-17 12:42:00,
2013-02-17 03:52:00,33.0,33.0,-100.00,North,350,4.0,6.0,100,0.00,,,0.01,0.000000,,2013-02-17 12:52:00,
2013-02-17 04:21:00,32.0,32.0,-100.00,NE,40,2.0,7.0,100,0.00,,,0.01,0.000000,,2013-02-17 13:21:00,
2013-02-17 04:32:00,32.0,32.0,-100.00,NE,40,2.0,7.0,100,0.00,,,0.01,0.000000,,2013-02-17 13:32:00,
2013-02-17 04:41:00,32.0,32.0,-100.00,NE,40,2.0,7.0,100,0.00,,,0.01,0.000000,,2013-02-17 13:41:00,
2013-02-17 04:51:00,32.0,32.0,-100.00,NE,40,2.0,7.0,100,0.00,,,0.01,0.000000,,2013-02-17 13:51:00,
2013-02-17 05:21:00,32.0,32.0,-100.00,NNW,327,4.0,9.0,100,0.00,,,-99.99,0.000000,,2013-02-17 14:21:00,
2013-02-17 05:32:00,32.0,32.0,-100.00,NNW,327,4.0,9.0,100,0.00,,,-99.99,0.000000,,2013-02-17 14:32:00,
2013-02-17 05:42:00,32.0,32.0,-100.00,NNW,327,4.0,9.0,100,0.00,,,-99.99,0.000000,,2013-02-17 14:42:00,
2013-02-17 05:52:00,32.0,32.0,-100.00,NNW,327,4.0,9.0,100,0.00,,,-99.99,0.000000,,2013-02-17 14:52:00,
2013-02-17 06:21:00,32.0,32.0,-100.00,NW,305,4.0,11.0,100,0.00,,,0.00,0.000000,,2013-02-17 15:21:00,
2013-02-17 06:31:00,32.0,32.0,-100.00,NW,305,4.0,11.0,100,0.00,,,0.00,0.000000,,2013-02-17 15:31:00,
2013-02-17 06:41:00,32.0,32.0,-100.00,NW,305,4.0,11.0,100,0.00,,,0.00,0.000000,,2013-02-17 15:41:00,
2013-02-17 06:52:00,32.0,32.0,-100.00,NW,305,4.0,11.0,100,0.00,,,0.00,0.000000,,2013-02-17 15:52:00,
2013-02-17 07:21:00,32.0,32.0,-100.00,NW,309,4.0,9.0,100,0.00,,,-99.99,0.000000,,2013-02-17 16:21:00,
2013-02-17 07:31:00,32.0,32.0,-100.00,NW,309,4.0,9.0,100,0.00,,,-99.99,0.000000,,2013-02-17 16:31:00,
2013-02-17 07:41:00,32.0,32.0,-100.00,NW,309,4.0,9.0,100,0.00,,,-99.99,0.000000,,2013-02-17 16:41:00,
2013-02-17 07:51:00,32.0,32.0,-100.00,NW,309,4.0,9.0,100,0.00,,,-99.99,0.000000,,2013-02-17 16:51:00,
2013-02-17 08:21:00,33.0,33.0,-100.00,NW,326,6.0,10.0,100,0.00,,,0.00,5.000000,,2013-02-17 17:21:00,
2013-02-17 08:32:00,33.0,33.0,-100.00,NW,326,6.0,10.0,100,0.00,,,0.00,5.000000,,2013-02-17 17:32:00,
2013-02-17 08:41:00,33.0,33.0,-100.00,NW,326,6.0,10.0,100,0.00,,,0.00,5.000000,,2013-02-17 17:41:00,
2013-02-17 08:52:00,33.0,33.0,-100.00,NW,326,6.0,10.0,100,0.00,,,0.00,5.000000,,2013-02-17 17:52:00,
2013-02-17 09:22:00,33.0,32.0,-100.00,NW,307,3.0,10.0,96,0.00,,,0.00,34.000000,,2013-02-17 18:22:00,
2013-02-17 09:33:00,33.0,32.0,-100.00,NW,307,3.0,10.0,96,0.00,,,0.00,34.000000,,2013-02-17 18:33:00,
2013-02-17 09:42:00,33.0,32.0,-100.00,NW,307,3.0,10.0,96,0.00,,,0.00,34.000000,,2013-02-17 18:42:00,
2013-02-17 09:52:00,33.0,32.0,-100.00,NW,307,3.0,10.0,96,0.00,,,0.00,34.000000,,2013-02-17 18:52:00,
2013-02-17 10:21:00,32.0,31.0,-100.00,NW,326,5.0,12.0,97,0.00,,,-99.99,58.000000,,2013-02-17 19:21:00,
2013-02-17 10:32:00,32.0,31.0,-100.00,NW,326,5.0,12.0,97,0.00,,,-99.99,58.000000,,2013-02-17 19:32:00,
2013-02-17 10:41:00,32.0,31.0,-100.00,NW,326,5.0,12.0,97,0.00,,,-99.99,58.000000,,2013-02-17 19:41:00,
2013-02-17 10:51:00,32.0,31.0,-100.00,NW,326,5.0,12.0,97,0.00,,,-99.99,58.000000,,2013-02-17 19:51:00,
2013-02-17 11:21:00,32.0,32.0,-100.00,NNW,334,5.0,14.0,100,0.00,,,0.00,99.000000,,2013-02-17 20:21:00,
2013-02-17 11:32:00,32.0,32.0,-100.00,NNW,334,5.0,14.0,100,0.00,,,0.00,99.000000,,2013-02-17 20:32:00,
2013-02-17 11:42:00,32.0,32.0,-100.00,NNW,334,5.0,14.0,100,0.00,,,0.00,99.000000,,2013-02-17 20:42:00,
2013-02-17 11:52:00,32.0,32.0,-100.00,NNW,334,5.0,14.0,100,0.00,,,0.00,99.000000,,2013-02-17 20:52:00,
2013-02-17 12:21:00,32.0,32.0,-100.00,WNW,300,5.0,14.0,100,0.01,,,0.01,49.000000,,2013-02-17 21:21:00,
2013-02-17 12:31:00,32.0,32.0,-100.00,WNW,300,5.0,14.0,100,0.01,,,0.01,49.000000,,2013-02-17 21:31:00,
2013-02-17 12:41:00,32.0,32.0,-100.00,WNW,300,5.0,14.0,100,0.01,,,0.01,49.000000,,2013-02-17 21:41:00,
2013-02-17 12:52:00,32.0,32.0,-100.00,WNW,300,5.0,14.0,100,0.01,,,0.01,49.000000,,2013-02-17 21:52:00,
2013-02-17 13:21:00,32.0,32.0,-100.00,NNW,334,10.0,23.0,100,0.00,,,0.01,21.000000,,2013-02-17 22:21:00,
2013-02-17 13:32:00,32.0,32.0,-100.00,NNW,334,10.0,23.0,100,0.00,,,0.01,21.000000,,2013-02-17 22:32:00,
2013-02-17 13:41:00,32.0,32.0,-100.00,NNW,334,10.0,23.0,100,0.00,,,0.01,21.000000,,2013-02-17 22:41:00,
2013-02-17 13:52:00,32.0,32.0,-100.00,NNW,334,10.0,23.0,100,0.00,,,0.01,21.000000,,2013-02-17 22:52:00,
2013-02-17 14:21:00,33.0,33.0,-100.00,West,276,7.0,18.0,100,0.00,,,0.01,38.000000,,2013-02-17 23:21:00,
2013-02-17 14:31:00,33.0,33.0,-100.00,West,276,7.0,18.0,100,0.00,,,0.01,38.000000,,2013-02-17 23:31:00,
2013-02-17 14:41:00,33.0,33.0,-100.00,West,276,7.0,18.0,100,0.00,,,0.01,38.000000,,2013-02-17 23:41:00,
2013-02-17 14:52:00,33.0,33.0,-100.00,West,276,7.0,18.0,100,0.00,,,0.01,38.000000,,2013-02-17 23:52:00,
2013-02-17 15:22:00,33.0,33.0,-100.00,WNW,291,6.0,16.0,100,0.00,,,0.01,35.000000,,2013-02-18 00:22:00,
2013-02-17 15:31:00,33.0,33.0,-100.00,WNW,291,6.0,16.0,100,0.00,,,0.01,35.000000,,2013-02-18 00:31:00,
2013-02-17 15:41:00,33.0,33.0,-100.00,WNW,291,6.0,16.0,100,0.00,,,0.01,35.000000,,2013-02-18 00:41:00,
2013-02-17 15:52:00,33.0,33.0,-100.00,WNW,291,6.0,16.0,100,0.00,,,0.01,35.000000,,2013-02-18 00:52:00,
2013-02-17 16:21:00,34.0,34.0,-100.00,WNW,294,6.0,16.0,100,0.01,,,0.02,15.000000,,2013-02-18 01:21:00,
2013-02-17 16:31:00,34.0,34.0,-100.00,WNW,294,6.0,16.0,100,0.01,,,0.02,15.000000,,2013-02-18 01:31:00,
2013-02-17 16:41:00,34.0,34.0,-100.00,WNW,294,6.0,16.0,100,0.01,,,0.02,15.000000,,2013-02-18 01:41:00,
2013-02-17 16:51:00,34.0,34.0,-100.00,WNW,294,6.0,16.0,100,0.01,,,0.02,15.000000,,2013-02-18 01:51:00,
2013-02-17 17:21:00,34.0,34.0,-100.00,WNW,288,6.0,14.0,100,0.02,,,0.04,5.000000,,2013-02-18 02:21:00,
2013-02-17 17:32:00,34.0,34.0,-100.00,WNW,288,6.0,14.0,100,0.02,,,0.04,5.000000,,2013-02-18 02:32:00,
2013-02-17 17:41:00,34.0,34.0,-100.00,WNW,288,6.0,14.0,100,0.02,,,0.04,5.000000,,2013-02-18 02:41:00,
2013-02-17 17:52:00,34.0,34.0,-100.00,WNW,288,6.0,14.0,100,0.02,,,0.04,5.000000,,2013-02-18 02:52:00,
2013-02-17 18:21:00,34.0,34.0,-100.00,WNW,299,7.0,19.0,100,0.02,,,0.06,1.000000,,2013-02-18 03:21:00,
2013-02-17 18:31:00,34.0,34.0,-100.00,WNW,299,7.0,19.0,100,0.02,,,0.06,1.000000,,2013-02-18 03:31:00,
2013-02-17 18:42:00,34.0,34.0,-100.00,WNW,299,7.0,19.0,100,0.02,,,0.06,1.000000,,2013-02-18 03:42:00,
2013-02-17 18:51:00,34.0,34.0,-100.00,WNW,299,7.0,19.0,100,0.02,,,0.06,1.000000,,2013-02-18 03:51:00,
2013-02-17 19:21:00,35.0,35.0,-100.00,WNW,299,7.0,20.0,100,0.01,,,0.07,0.000000,,2013-02-18 04:21:00,
2013-02-17 19:32:00,35.0,35.0,-100.00,WNW,299,7.0,20.0,100,0.01,,,0.07,0.000000,,2013-02-18 04:32:00,
2013-02-17 19:41:00,35.0,35.0,-100.00,WNW,299,7.0,20.0,100,0.01,,,0.07,0.000000,,2013-02-18 04:41:00,
2013-02-17 19:51:00,35.0,35.0,-100.00,WNW,299,7.0,20.0,100,0.01,,,0.07,0.000000,,2013-02-18 04:51:00,
2013-02-17 20:21:00,34.0,34.0,-100.00,NW,305,6.0,21.0,100,0.02,,,0.09,0.000000,,2013-02-18 05:21:00,
2013-02-17 20:31:00,34.0,34.0,-100.00,NW,305,6.0,21.0,100,0.02,,,0.09,0.000000,,2013-02-18 05:31:00,
2013-02-17 20:41:00,34.0,34.0,-100.00,NW,305,6.0,21.0,100,0.02,,,0.09,0.000000,,2013-02-18 05:41:00,
2013-02-17 20:51:00,34.0,34.0,-100.00,NW,305,6.0,21.0,100,0.02,,,0.09,0.000000,,2013-02-18 05:51:00,
2013-02-17 21:21:00,34.0,34.0,-100.00,NNW,334,9.0,21.0,100,0.04,,,0.13,0.000000,,2013-02-18 06:21:00,
2013-02-17 21:31:00,34.0,34.0,-100.00,NNW,334,9.0,21.0,100,0.04,,,0.13,0.000000,,2013-02-18 06:31:00,
2013-02-17 21:41:00,34.0,34.0,-100.00,NNW,334,9.0,21.0,100,0.04,,,0.13,0.000000,,2013-02-18 06:41:00,
2013-02-17 21:51:00,34.0,34.0,-100.00,NNW,334,9.0,21.0,100,0.04,,,0.13,0.000000,,2013-02-18 06:51:00,
2013-02-17 22:21:00,35.0,35.0,-100.00,NW,318,8.0,21.0,100,0.03,,,0.16,0.000000,,2013-02-18 07:21:00,
2013-02-17 22:31:00,35.0,35.0,-100.00,NW,318,8.0,21.0,100,0.03,,,0.16,0.000000,,2013-02-18 07:31:00,
2013-02-17 22:42:00,35.0,35.0,-100.00,NW,318,8.0,21.0,100,0.03,,,0.16,0.000000,,2013-02-18 07:42:00,
2013-02-17 22:51:00,35.0,35.0,-100.00,NW,318,8.0,21.0,100,0.03,,,0.16,0.000000,,2013-02-18 07:51:00,
2013-02-17 23:21:00,35.0,35.0,-100.00,NW,324,10.0,23.0,100,0.01,,,0.17,0.000000,,2013-02-18 08:21:00,
2013-02-17 23:32:00,35.0,35.0,-100.00,NW,324,10.0,23.0,100,0.01,,,0.17,0.000000,,2013-02-18 08:32:00,
2013-02-17 23:42:00,35.0,35.0,-100.00,NW,324,10.0,23.0,100,0.01,,,0.17,0.000000,,2013-02-18 08:42:00,
2013-02-17 23:52:00,35.0,35.0,-100.00,NW,324,10.0,23.0,100,0.01,,,0.17,0.000000,,2013-02-18 08:52:00,